Aérodrome :
LOGIN :

S'inscrire | Disclaimer

   EN    FR    IT 

 










Légende :    VFR   VFR Marginal   IFR   IFR Intensif   IFR Très Intensif
Visi : 
Plafond : 
>= 8 km
>= 3000ft
5 à 8 km
1000 à 3000 ft
1500m à 5 km
500 à 1000 ft
800 à 1500m
200 à 500 ft
< 800m
< 200 ft
Symboles :   Orages  Brouillard  Fortes neiges  Fortes précipitations  Vent > 20 kt
SIGMETs :   Divers  Orages  Givrage  Turbulence  Onde Orograph.  Cendres Volcan.







- Altitude de l'aérodrome : 142 ft
- Code IATA : ALC


LEAL - Alicante

DERNIER METAR :
  • 140800Z 28016KT 260V320 CAVOK 12/03 Q1021 NOSIG

METARs EXPIRÉS :
  • 140730Z 30016KT 270V330 CAVOK 12/03 Q1021 NOSIG
  • 140700Z 30020KT CAVOK 12/04 Q1021 NOSIG
  • 140630Z 26013G24KT 200V320 CAVOK 12/03 Q1021 NOSIG
  • 140600Z 26010KT 240V300 CAVOK 12/03 Q1021 NOSIG
  • 140530Z 25014KT CAVOK 12/03 Q1021 NOSIG

TAF TAF LEAL
Valide du 14 à 06h jusqu'au 15 à 06h UTC


140500Z 1406/1506 28014KT 9999 FEW030 TX20/1413Z TN08/1406Z
TEMPO 1406/1414 29016G28KT
BECMG 1420/1422 24010KT
Pas de NOTAMs connus pour ce terrain.



MET'MAP, la Météo Aéronautique d'un coup d'oeil ! - Copyright ORBIFLY Décembre 2007 - Disclaimer

ORBIFLY MET'MAP TEAM :

Programmation & Développement : Alexandra Zaïnal
Conception & Développement : Baudouin d'Aumeries
Co-Programmation & Développement : Marc-Olivier Méhu
Soutien technique & logistique : Manuel Goepfert

Contact : metmap@orbifly.com




SOURCES & CREDITS :

   NOAA